createdAt,value
2023-10-29T00:02:14.906Z,3.80
2023-10-29T00:04:42.043Z,3.30
2023-10-29T00:07:09.688Z,3.33
2023-10-29T00:09:37.273Z,3.40
2023-10-29T00:12:04.896Z,3.25
2023-10-29T00:14:32.466Z,2.80
2023-10-29T00:17:00.076Z,2.83
2023-10-29T00:19:27.206Z,3.40
2023-10-29T00:21:54.603Z,4.30
2023-10-29T00:24:23.514Z,3.88
2023-10-29T00:26:51.816Z,4.90
2023-10-29T00:29:18.944Z,4.97
2023-10-29T00:31:46.399Z,3.55
2023-10-29T00:34:13.687Z,3.13
2023-10-29T00:36:41.995Z,3.70
2023-10-29T00:39:09.102Z,3.43
2023-10-29T00:41:36.643Z,4.80
2023-10-29T00:44:03.918Z,4.00
2023-10-29T00:46:32.174Z,3.15
2023-10-29T00:49:00.149Z,2.88
2023-10-29T00:51:28.001Z,3.50
2023-10-29T00:53:55.409Z,2.35
2023-10-29T00:56:23.196Z,2.67
2023-10-29T00:58:52.656Z,2.83
2023-10-29T01:01:20.898Z,4.50
2023-10-29T01:03:48.218Z,3.40
2023-10-29T01:06:17.338Z,3.08
2023-10-29T01:08:44.840Z,2.85
2023-10-29T01:11:12.278Z,3.50
2023-10-29T01:13:40.257Z,4.20
2023-10-29T01:16:08.224Z,3.40
2023-10-29T01:18:35.497Z,3.05
2023-10-29T01:21:03.094Z,2.53
2023-10-29T01:23:31.731Z,3.03
2023-10-29T01:25:59.259Z,4.32
2023-10-29T01:28:26.837Z,5.40
2023-10-29T01:30:54.658Z,5.47
2023-10-29T01:33:22.023Z,4.13
2023-10-29T01:35:49.629Z,3.25
2023-10-29T01:38:16.771Z,2.50
2023-10-29T01:40:45.222Z,2.60
2023-10-29T01:43:12.431Z,2.60
2023-10-29T01:45:39.905Z,3.17
2023-10-29T01:48:07.400Z,2.65
2023-10-29T01:50:36.657Z,3.28
2023-10-29T01:53:03.773Z,3.20
2023-10-29T01:55:31.511Z,3.30
2023-10-29T01:57:58.834Z,3.00
2023-10-29T02:00:26.325Z,4.57
2023-10-29T02:02:53.817Z,4.80
2023-10-29T02:05:22.055Z,3.33
2023-10-29T02:07:49.965Z,4.65
2023-10-29T02:10:17.484Z,3.38
2023-10-29T02:12:44.589Z,3.10
2023-10-29T02:15:13.639Z,3.00
2023-10-29T02:17:40.763Z,4.13
2023-10-29T02:20:08.781Z,3.50
2023-10-29T02:22:35.947Z,2.88
2023-10-29T02:25:03.455Z,3.92
2023-10-29T02:27:30.502Z,3.30
2023-10-29T02:29:59.344Z,4.20
2023-10-29T02:32:26.824Z,2.97
2023-10-29T02:34:54.815Z,2.25
2023-10-29T02:37:21.935Z,2.80
2023-10-29T02:39:49.393Z,3.40
2023-10-29T02:42:18.569Z,2.70
2023-10-29T02:44:46.250Z,2.30
2023-10-29T02:47:13.596Z,2.20
2023-10-29T02:49:41.321Z,2.10
2023-10-29T02:52:08.496Z,2.03
2023-10-29T02:54:36.050Z,1.90
2023-10-29T02:57:04.524Z,2.40
2023-10-29T02:59:33.368Z,1.95
2023-10-29T03:02:00.437Z,2.33
2023-10-29T03:04:27.899Z,2.00
2023-10-29T03:06:54.999Z,1.90
2023-10-29T03:09:22.500Z,1.90
2023-10-29T03:11:49.614Z,1.75
2023-10-29T03:14:17.203Z,1.80
2023-10-29T03:16:44.473Z,1.70
2023-10-29T03:19:13.744Z,1.70
2023-10-29T03:21:41.066Z,1.75
2023-10-29T03:24:08.880Z,1.42
2023-10-29T03:26:35.998Z,1.67
2023-10-29T03:29:04.236Z,1.73
2023-10-29T03:31:31.882Z,1.77
2023-10-29T03:33:59.324Z,1.80
2023-10-29T03:36:26.423Z,1.88
2023-10-29T03:38:53.996Z,2.33
2023-10-29T03:41:25.215Z,2.15
2023-10-29T03:43:52.972Z,2.23
2023-10-29T03:46:20.448Z,2.30
2023-10-29T03:48:47.931Z,2.47
2023-10-29T03:51:15.795Z,2.58
2023-10-29T03:53:43.886Z,4.00
2023-10-29T03:56:11.064Z,3.97
2023-10-29T03:58:38.578Z,3.95
2023-10-29T04:01:05.842Z,3.95
2023-10-29T04:03:33.753Z,3.67
2023-10-29T04:06:01.160Z,3.10
2023-10-29T04:08:29.083Z,3.30
2023-10-29T04:10:56.409Z,3.95
2023-10-29T04:13:23.868Z,3.80
2023-10-29T04:15:52.255Z,3.88
2023-10-29T04:18:20.951Z,4.10
2023-10-29T04:20:48.286Z,3.70
2023-10-29T04:23:15.738Z,3.90
2023-10-29T04:25:44.807Z,4.15
2023-10-29T04:28:12.233Z,3.30
2023-10-29T04:30:39.392Z,3.13
2023-10-29T04:33:07.015Z,3.17
2023-10-29T04:35:34.256Z,2.70
2023-10-29T04:38:01.664Z,2.58
2023-10-29T04:40:28.732Z,2.85
2023-10-29T04:42:56.133Z,3.05
2023-10-29T04:45:23.259Z,2.43
2023-10-29T04:47:50.739Z,3.28
2023-10-29T04:50:17.887Z,4.00
2023-10-29T04:52:45.340Z,4.38
2023-10-29T04:55:12.506Z,4.20
2023-10-29T04:57:40.101Z,3.90
2023-10-29T05:00:07.955Z,4.03
2023-10-29T05:02:37.230Z,3.55
2023-10-29T05:05:05.272Z,3.60
2023-10-29T05:07:32.803Z,2.60
2023-10-29T05:10:00.304Z,2.90
2023-10-29T05:12:27.797Z,3.50
2023-10-29T05:14:55.067Z,2.75
2023-10-29T05:17:22.710Z,3.45
2023-10-29T05:19:49.889Z,4.05
2023-10-29T05:22:17.631Z,3.87
2023-10-29T05:24:44.680Z,3.75
2023-10-29T05:27:12.134Z,4.00
2023-10-29T05:29:39.284Z,3.92
2023-10-29T05:32:07.649Z,4.03
2023-10-29T05:34:35.015Z,4.23
2023-10-29T05:37:02.446Z,4.25
2023-10-29T05:39:29.524Z,4.30
2023-10-29T05:41:57.006Z,3.50
2023-10-29T05:44:24.097Z,2.42
2023-10-29T05:46:51.491Z,2.10
2023-10-29T05:49:18.598Z,2.00
2023-10-29T05:51:46.098Z,1.70
2023-10-29T05:54:13.358Z,1.98
2023-10-29T05:56:40.771Z,2.00
2023-10-29T05:59:08.573Z,2.23
2023-10-29T06:01:36.192Z,3.00
2023-10-29T06:04:03.412Z,2.70
2023-10-29T06:06:31.089Z,3.40
2023-10-29T06:09:04.277Z,3.10
2023-10-29T06:11:37.270Z,2.50
2023-10-29T06:14:05.236Z,2.92
2023-10-29T06:16:32.704Z,2.60
2023-10-29T06:18:59.798Z,2.80
2023-10-29T06:21:27.164Z,2.83
2023-10-29T06:23:54.276Z,2.90
2023-10-29T06:26:21.756Z,2.50
2023-10-29T06:28:49.067Z,2.10
2023-10-29T06:31:16.989Z,2.63
2023-10-29T06:33:44.118Z,3.30
2023-10-29T06:36:11.481Z,5.10
2023-10-29T06:38:38.565Z,4.85
2023-10-29T06:41:05.981Z,5.63
2023-10-29T06:43:33.090Z,6.05
2023-10-29T06:46:00.637Z,5.25
2023-10-29T06:48:27.779Z,4.97
2023-10-29T06:50:55.338Z,5.38
2023-10-29T06:53:22.445Z,7.68
2023-10-29T06:55:49.957Z,6.53
2023-10-29T06:58:17.014Z,5.30
2023-10-29T07:00:44.486Z,4.43
2023-10-29T07:03:11.742Z,4.65
2023-10-29T07:05:39.385Z,4.25
2023-10-29T07:08:06.539Z,3.65
2023-10-29T07:10:34.013Z,3.40
2023-10-29T07:13:01.256Z,2.90
2023-10-29T07:15:28.707Z,3.20
2023-10-29T07:17:56.553Z,3.00
2023-10-29T07:20:24.248Z,3.30
2023-10-29T07:22:51.431Z,2.97
2023-10-29T07:25:18.899Z,3.47
2023-10-29T07:27:45.984Z,4.45
2023-10-29T07:30:13.508Z,3.45
2023-10-29T07:32:40.800Z,3.33
2023-10-29T07:35:08.653Z,3.30
2023-10-29T07:37:35.719Z,4.70
2023-10-29T07:40:03.129Z,6.13
2023-10-29T07:42:30.277Z,4.07
2023-10-29T07:44:57.745Z,4.80
2023-10-29T07:47:24.939Z,4.60
2023-10-29T07:49:52.455Z,4.37
2023-10-29T07:52:19.595Z,4.10
2023-10-29T07:54:47.270Z,3.67
2023-10-29T07:57:14.586Z,3.60
2023-10-29T07:59:42.160Z,3.20
2023-10-29T08:02:09.580Z,3.37
2023-10-29T08:04:37.178Z,3.70
2023-10-29T08:07:05.472Z,4.13
2023-10-29T08:09:32.993Z,3.70
2023-10-29T08:12:00.179Z,3.50
2023-10-29T08:14:27.757Z,3.07
2023-10-29T08:16:54.881Z,2.70
2023-10-29T08:19:22.420Z,2.22
2023-10-29T08:21:49.564Z,2.50
2023-10-29T08:24:17.049Z,3.45
2023-10-29T08:26:44.209Z,2.70
2023-10-29T08:29:12.819Z,3.45
2023-10-29T08:31:40.071Z,2.90
2023-10-29T08:34:08.127Z,3.20
2023-10-29T08:36:35.255Z,3.05
2023-10-29T08:39:03.322Z,3.00
2023-10-29T08:41:30.539Z,3.45
2023-10-29T08:43:58.031Z,4.15
2023-10-29T08:46:25.488Z,6.57
2023-10-29T08:48:53.019Z,5.75
2023-10-29T08:51:20.130Z,4.93
2023-10-29T08:53:47.640Z,5.05
2023-10-29T08:56:15.531Z,4.90
2023-10-29T08:58:42.960Z,4.78
2023-10-29T09:01:14.099Z,5.40
2023-10-29T09:03:41.886Z,4.37
2023-10-29T09:06:09.180Z,4.05
2023-10-29T09:08:36.924Z,3.58
2023-10-29T09:11:04.650Z,3.85
2023-10-29T09:13:32.199Z,4.40
2023-10-29T09:15:59.576Z,4.03
2023-10-29T09:18:27.181Z,3.60
2023-10-29T09:20:54.481Z,3.70
2023-10-29T09:23:23.454Z,4.53
2023-10-29T09:25:51.308Z,4.30
2023-10-29T09:28:18.723Z,3.83
2023-10-29T09:30:46.368Z,3.85
2023-10-29T09:33:14.756Z,3.17
2023-10-29T09:35:42.014Z,3.95
2023-10-29T09:38:09.853Z,3.45
2023-10-29T09:40:37.680Z,3.40
2023-10-29T09:43:06.832Z,2.50
2023-10-29T09:45:38.871Z,3.05
2023-10-29T09:48:09.218Z,2.80
2023-10-29T09:50:36.395Z,3.22
2023-10-29T09:53:04.518Z,2.40
2023-10-29T09:55:35.022Z,2.00
2023-10-29T09:58:04.677Z,1.90
2023-10-29T10:00:32.841Z,1.40
2023-10-29T10:03:01.650Z,1.42
2023-10-29T10:05:29.936Z,1.20
2023-10-29T10:07:58.130Z,1.45
2023-10-29T10:10:39.827Z,1.33
2023-10-29T10:13:08.524Z,2.20
2023-10-29T10:15:36.701Z,3.35
2023-10-29T10:18:08.753Z,2.60
2023-10-29T10:20:36.941Z,2.45
2023-10-29T10:23:06.768Z,2.80
2023-10-29T10:25:36.554Z,4.13
2023-10-29T10:28:05.243Z,4.72
2023-10-29T10:30:34.778Z,4.43
2023-10-29T10:33:14.218Z,2.97
2023-10-29T10:35:45.321Z,2.40
2023-10-29T10:38:15.320Z,2.30
2023-10-29T10:40:42.733Z,2.38
2023-10-29T10:43:10.531Z,1.97
2023-10-29T10:45:38.871Z,1.90
2023-10-29T10:48:06.966Z,1.85
2023-10-29T10:50:35.956Z,2.05
2023-10-29T10:53:04.542Z,1.77
2023-10-29T10:55:47.522Z,1.80
2023-10-29T10:58:20.228Z,5.10
2023-10-29T11:00:50.419Z,3.97
2023-10-29T11:03:31.900Z,2.80
2023-10-29T11:06:00.993Z,3.70
2023-10-29T11:08:28.744Z,5.03
2023-10-29T11:10:58.687Z,16.75
2023-10-29T11:13:28.094Z,18.75
2023-10-29T11:15:56.702Z,16.00
2023-10-29T11:18:33.968Z,16.77
2023-10-29T11:21:01.999Z,18.67
2023-10-29T11:23:31.179Z,20.13
2023-10-29T11:26:36.938Z,9.88
2023-10-29T11:29:04.381Z,3.95
2023-10-29T11:31:31.596Z,2.50
2023-10-29T11:33:59.510Z,1.60
2023-10-29T11:36:29.548Z,1.38
2023-10-29T11:39:24.159Z,1.50
2023-10-29T11:41:52.954Z,1.70
2023-10-29T11:44:27.044Z,1.50
2023-10-29T11:47:00.122Z,1.50
2023-10-29T11:49:27.980Z,1.42
2023-10-29T11:51:57.255Z,1.67
2023-10-29T11:54:25.355Z,1.60
2023-10-29T11:56:53.498Z,1.20
2023-10-29T11:59:21.098Z,1.40
2023-10-29T12:01:48.240Z,1.38
2023-10-29T12:04:15.952Z,1.30
2023-10-29T12:06:47.395Z,1.42
2023-10-29T12:09:18.946Z,1.30
2023-10-29T12:11:47.807Z,1.00
2023-10-29T12:14:15.609Z,1.10
2023-10-29T12:16:43.284Z,1.27
2023-10-29T12:19:10.901Z,1.25
2023-10-29T12:21:50.760Z,1.40
2023-10-29T12:24:19.192Z,1.50
2023-10-29T12:26:46.668Z,1.20
2023-10-29T12:29:14.573Z,1.45
2023-10-29T12:31:47.644Z,1.42
2023-10-29T12:34:15.076Z,2.20
2023-10-29T12:36:52.702Z,2.40
2023-10-29T12:39:21.889Z,3.10
2023-10-29T12:41:55.605Z,2.70
2023-10-29T12:44:23.057Z,2.70
2023-10-29T12:46:53.166Z,1.90
2023-10-29T12:49:27.082Z,2.20
2023-10-29T12:51:56.025Z,1.70
2023-10-29T12:54:26.709Z,1.33
2023-10-29T12:57:02.938Z,1.30
2023-10-29T12:59:33.234Z,1.08
2023-10-29T13:02:06.673Z,1.07
2023-10-29T13:04:36.724Z,1.10
2023-10-29T13:07:12.950Z,1.40
2023-10-29T13:09:42.098Z,1.30
2023-10-29T13:12:09.945Z,1.20
2023-10-29T13:14:38.240Z,2.60
2023-10-29T13:17:06.113Z,4.70
2023-10-29T13:19:34.561Z,4.55
2023-10-29T13:22:01.704Z,3.42
2023-10-29T13:24:31.249Z,3.58
2023-10-29T13:26:58.501Z,3.10
2023-10-29T13:29:26.297Z,3.40
2023-10-29T13:31:53.705Z,2.90
2023-10-29T13:34:21.152Z,3.30
2023-10-29T13:36:48.298Z,3.67
2023-10-29T13:39:19.677Z,3.33
2023-10-29T13:41:47.151Z,4.47
2023-10-29T13:44:17.454Z,4.40
2023-10-29T13:46:45.128Z,3.85
2023-10-29T13:49:12.703Z,4.40
2023-10-29T13:51:40.982Z,2.43
2023-10-29T13:54:10.086Z,2.20
2023-10-29T13:56:37.321Z,2.30
2023-10-29T13:59:04.946Z,2.80
2023-10-29T14:01:32.072Z,3.22
2023-10-29T14:04:00.301Z,2.50
2023-10-29T14:06:28.045Z,2.25
2023-10-29T14:08:55.366Z,2.40
2023-10-29T14:11:22.534Z,2.40
2023-10-29T14:13:55.192Z,3.85
2023-10-29T14:16:34.807Z,3.47
2023-10-29T14:19:02.348Z,5.13
2023-10-29T14:21:29.638Z,4.47
2023-10-29T14:23:57.909Z,4.53
2023-10-29T14:26:25.046Z,4.05
2023-10-29T14:28:52.498Z,3.50
2023-10-29T14:31:19.573Z,3.30
2023-10-29T14:33:47.186Z,2.85
2023-10-29T14:36:17.123Z,2.80
2023-10-29T14:38:45.353Z,3.40
2023-10-29T14:41:17.508Z,2.63
2023-10-29T14:43:45.205Z,2.40
2023-10-29T14:46:12.753Z,2.28
2023-10-29T14:48:41.216Z,2.13
2023-10-29T14:51:08.837Z,2.00
2023-10-29T14:53:36.746Z,1.90
2023-10-29T14:56:04.098Z,1.65
2023-10-29T14:58:31.547Z,1.73
2023-10-29T15:00:59.532Z,1.80
2023-10-29T15:03:28.858Z,2.03
2023-10-29T15:05:57.321Z,2.00
2023-10-29T15:08:25.542Z,1.75
2023-10-29T15:10:53.961Z,1.88
2023-10-29T15:13:24.653Z,1.70
2023-10-29T15:15:51.821Z,1.80
2023-10-29T15:18:19.796Z,2.10
2023-10-29T15:21:00.359Z,1.75
2023-10-29T15:23:29.056Z,2.28
2023-10-29T15:25:56.210Z,1.90
2023-10-29T15:28:23.687Z,1.90
2023-10-29T15:30:50.717Z,2.00
2023-10-29T15:33:18.296Z,1.80
2023-10-29T15:35:45.862Z,1.80
2023-10-29T15:38:14.846Z,1.80
2023-10-29T15:40:42.046Z,1.70
2023-10-29T15:43:09.532Z,1.77
2023-10-29T15:45:38.209Z,1.50
2023-10-29T15:48:06.037Z,1.70
2023-10-29T15:50:33.454Z,1.95
2023-10-29T15:53:00.908Z,1.50
2023-10-29T15:55:28.057Z,1.70
2023-10-29T15:57:55.577Z,1.65
2023-10-29T16:00:22.714Z,1.63
2023-10-29T16:02:50.735Z,1.80
2023-10-29T16:05:20.762Z,1.70
2023-10-29T16:07:48.371Z,1.80
2023-10-29T16:10:15.525Z,2.37
2023-10-29T16:12:43.101Z,2.15
2023-10-29T16:15:10.637Z,2.20
2023-10-29T16:17:38.164Z,2.33
2023-10-29T16:20:07.406Z,2.30
2023-10-29T16:22:35.242Z,2.83
2023-10-29T16:25:02.836Z,2.33
2023-10-29T16:27:33.281Z,3.00
2023-10-29T16:30:01.212Z,3.40
2023-10-29T16:32:28.731Z,3.53
2023-10-29T16:34:55.835Z,3.90
2023-10-29T16:37:23.306Z,4.03
2023-10-29T16:39:50.410Z,3.65
2023-10-29T16:42:17.854Z,3.45
2023-10-29T16:44:45.103Z,3.50
2023-10-29T16:47:12.647Z,3.15
2023-10-29T16:49:39.805Z,2.92
2023-10-29T16:52:07.244Z,2.47
2023-10-29T16:54:34.865Z,3.10
2023-10-29T16:57:02.416Z,4.07
2023-10-29T16:59:29.582Z,6.28
2023-10-29T17:01:57.011Z,5.43
2023-10-29T17:04:24.132Z,5.18
2023-10-29T17:06:51.683Z,4.55
2023-10-29T17:09:19.362Z,5.17
2023-10-29T17:11:48.972Z,5.03
2023-10-29T17:14:16.358Z,5.32
2023-10-29T17:16:43.904Z,4.85
2023-10-29T17:19:11.255Z,5.75
2023-10-29T17:21:38.982Z,5.53
2023-10-29T17:24:06.932Z,6.00
2023-10-29T17:26:34.483Z,5.03
2023-10-29T17:29:02.077Z,4.72
2023-10-29T17:31:29.948Z,4.30
2023-10-29T17:33:57.615Z,3.53
2023-10-29T17:36:25.124Z,3.30
2023-10-29T17:38:52.443Z,2.60
2023-10-29T17:41:23.098Z,3.05
2023-10-29T17:43:50.514Z,4.38
2023-10-29T17:46:22.666Z,6.00
2023-10-29T17:48:53.241Z,4.85
2023-10-29T17:51:20.909Z,5.20
2023-10-29T17:53:50.232Z,5.75
2023-10-29T17:56:21.271Z,5.47
2023-10-29T17:58:49.863Z,6.17
2023-10-29T18:01:17.596Z,6.93
2023-10-29T18:03:48.031Z,7.45
2023-10-29T18:06:22.812Z,6.75
2023-10-29T18:08:51.071Z,6.00
2023-10-29T18:11:19.298Z,6.27
2023-10-29T18:13:47.232Z,7.97
2023-10-29T18:16:14.832Z,5.80
2023-10-29T18:18:42.023Z,5.13
2023-10-29T18:21:09.966Z,5.30
2023-10-29T18:23:37.015Z,5.03
2023-10-29T18:26:04.729Z,5.28
2023-10-29T18:28:32.515Z,8.90
2023-10-29T18:31:05.555Z,9.25
2023-10-29T18:33:33.075Z,7.75
2023-10-29T18:36:08.404Z,9.20
2023-10-29T18:38:35.651Z,10.68
2023-10-29T18:41:03.399Z,10.32
2023-10-29T18:43:30.506Z,11.60
2023-10-29T18:45:58.898Z,10.77
2023-10-29T18:48:29.257Z,8.10
2023-10-29T18:51:06.321Z,8.25
2023-10-29T18:53:33.483Z,6.50
2023-10-29T18:56:00.920Z,6.05
2023-10-29T18:58:28.297Z,5.80
2023-10-29T19:01:12.845Z,5.60
2023-10-29T19:03:43.708Z,4.68
2023-10-29T19:06:13.862Z,5.70
2023-10-29T19:08:46.401Z,4.93
2023-10-29T19:11:16.670Z,5.70
2023-10-29T19:13:48.334Z,6.13
2023-10-29T19:16:19.592Z,6.13
2023-10-29T19:18:47.505Z,8.50
2023-10-29T19:21:17.234Z,8.35
2023-10-29T19:23:45.018Z,6.80
2023-10-29T19:26:14.458Z,7.50
2023-10-29T19:28:41.916Z,6.13
2023-10-29T19:33:43.665Z,4.60
2023-10-29T19:36:15.266Z,4.72
2023-10-29T19:38:42.968Z,4.23
2023-10-29T19:41:11.156Z,5.70
2023-10-29T19:43:38.191Z,7.78
2023-10-29T19:46:05.749Z,9.77
2023-10-29T19:48:33.043Z,11.02
2023-10-29T19:51:03.151Z,8.77
2023-10-29T19:53:32.719Z,8.15
2023-10-29T19:56:01.027Z,7.30
2023-10-29T19:58:28.089Z,8.88
2023-10-29T20:01:06.165Z,10.40
2023-10-29T20:03:34.446Z,8.13
2023-10-29T20:06:10.317Z,8.70
2023-10-29T20:08:38.762Z,9.90
2023-10-29T20:11:09.928Z,7.90
2023-10-29T20:13:41.613Z,6.90
2023-10-29T20:16:09.934Z,6.33
2023-10-29T20:18:37.835Z,5.80
2023-10-29T20:21:06.968Z,5.40
2023-10-29T20:23:34.102Z,5.60
2023-10-29T20:26:04.605Z,6.90
2023-10-29T20:28:36.408Z,6.87
2023-10-29T20:31:05.659Z,6.55
2023-10-29T20:33:33.596Z,8.38
2023-10-29T20:36:02.749Z,7.65
2023-10-29T20:38:37.907Z,8.13
2023-10-29T20:41:10.640Z,7.13
2023-10-29T20:43:38.924Z,7.25
2023-10-29T20:46:06.528Z,5.82
2023-10-29T20:48:34.024Z,5.05
2023-10-29T20:51:02.452Z,5.43
2023-10-29T20:53:29.713Z,6.33
2023-10-29T20:55:57.115Z,5.85
2023-10-29T20:58:24.208Z,6.60
2023-10-29T21:00:52.788Z,7.43
2023-10-29T21:03:20.177Z,7.32
2023-10-29T21:05:56.586Z,7.97
2023-10-29T21:08:23.723Z,5.93
2023-10-29T21:11:00.792Z,5.50
2023-10-29T21:13:27.864Z,6.07
2023-10-29T21:15:55.248Z,6.32
2023-10-29T21:18:22.796Z,5.73
2023-10-29T21:20:50.290Z,6.53
2023-10-29T21:23:17.837Z,8.15
2023-10-29T21:25:45.253Z,8.50
2023-10-29T21:28:12.459Z,8.02
2023-10-29T21:30:44.285Z,8.73
2023-10-29T21:33:12.250Z,7.65
2023-10-29T21:35:40.450Z,6.00
2023-10-29T21:38:09.838Z,5.90
2023-10-29T21:40:39.112Z,5.55
2023-10-29T21:43:06.868Z,5.13
2023-10-29T21:45:39.946Z,4.90
2023-10-29T21:48:08.986Z,4.85
2023-10-29T21:50:37.762Z,4.65
2023-10-29T21:53:07.856Z,5.00
2023-10-29T21:55:38.944Z,5.40
2023-10-29T21:58:10.251Z,4.80
2023-10-29T22:00:38.508Z,4.07
2023-10-29T22:03:06.372Z,4.22
2023-10-29T22:05:34.274Z,4.00
2023-10-29T22:08:01.527Z,3.70
2023-10-29T22:10:29.134Z,3.95
2023-10-29T22:12:57.101Z,3.60
2023-10-29T22:15:29.182Z,3.42
2023-10-29T22:17:56.497Z,4.00
2023-10-29T22:20:24.168Z,3.60
2023-10-29T22:22:51.231Z,3.40
2023-10-29T22:25:19.293Z,3.50
2023-10-29T22:27:46.380Z,3.63
2023-10-29T22:30:14.425Z,3.40
2023-10-29T22:32:41.539Z,3.17
2023-10-29T22:35:09.066Z,3.17
2023-10-29T22:37:36.270Z,3.25
2023-10-29T22:40:03.872Z,2.83
2023-10-29T22:42:30.979Z,2.90
2023-10-29T22:44:58.434Z,2.90
2023-10-29T22:47:25.620Z,2.60
2023-10-29T22:49:53.123Z,2.38
2023-10-29T22:52:20.152Z,2.28
2023-10-29T22:54:50.578Z,2.45
2023-10-29T22:57:17.667Z,2.50
2023-10-29T22:59:45.007Z,2.50
2023-10-29T23:02:11.982Z,2.80
2023-10-29T23:04:41.637Z,4.63
2023-10-29T23:07:08.890Z,4.57
2023-10-29T23:09:36.300Z,4.63
2023-10-29T23:12:03.523Z,4.05
2023-10-29T23:14:30.959Z,4.10
2023-10-29T23:16:57.990Z,3.40
2023-10-29T23:19:25.282Z,3.53
2023-10-29T23:21:52.698Z,3.30
2023-10-29T23:24:20.270Z,2.95
2023-10-29T23:26:47.358Z,3.95
2023-10-29T23:29:14.798Z,4.25
2023-10-29T23:31:42.083Z,4.22
2023-10-29T23:34:09.623Z,4.20
2023-10-29T23:36:36.611Z,4.10
2023-10-29T23:39:04.114Z,3.17
2023-10-29T23:41:31.123Z,3.60
2023-10-29T23:43:58.392Z,3.33
2023-10-29T23:46:25.393Z,4.33
2023-10-29T23:48:52.879Z,3.60
2023-10-29T23:51:20.274Z,4.20
2023-10-29T23:53:47.746Z,3.45
2023-10-29T23:56:14.812Z,3.30
2023-10-29T23:58:42.102Z,3.53
